sensor_id;sensor_type;location;lat;lon;timestamp;pressure;altitude;pressure_sealevel;temperature;humidity
50684;BME280;36654;45.042;38.994;2023-03-14T00:02:22;101825.97;;;3.10;76.40
50684;BME280;36654;45.042;38.994;2023-03-14T00:04:48;101833.34;;;3.17;76.36
50684;BME280;36654;45.042;38.994;2023-03-14T00:07:14;101838.59;;;3.17;76.29
50684;BME280;36654;45.042;38.994;2023-03-14T00:09:39;101829.03;;;3.17;76.34
50684;BME280;36654;45.042;38.994;2023-03-14T00:12:05;101831.91;;;3.22;76.14
50684;BME280;36654;45.042;38.994;2023-03-14T00:14:32;101811.66;;;3.19;76.08
50684;BME280;36654;45.042;38.994;2023-03-14T00:16:58;101825.25;;;3.27;75.96
50684;BME280;36654;45.042;38.994;2023-03-14T00:19:24;101825.97;;;3.24;75.76
50684;BME280;36654;45.042;38.994;2023-03-14T00:21:49;101830.38;;;3.26;75.51
50684;BME280;36654;45.042;38.994;2023-03-14T00:24:15;101840.41;;;3.33;75.40
50684;BME280;36654;45.042;38.994;2023-03-14T00:26:41;101838.78;;;3.35;75.40
50684;BME280;36654;45.042;38.994;2023-03-14T00:29:06;101835.34;;;3.36;75.19
50684;BME280;36654;45.042;38.994;2023-03-14T00:31:32;101830.09;;;3.36;75.15
50684;BME280;36654;45.042;38.994;2023-03-14T00:33:57;101828.94;;;3.31;74.83
50684;BME280;36654;45.042;38.994;2023-03-14T00:36:23;101820.50;;;3.36;74.85
50684;BME280;36654;45.042;38.994;2023-03-14T00:38:50;101818.78;;;3.37;74.67
50684;BME280;36654;45.042;38.994;2023-03-14T00:41:21;101824.28;;;3.41;74.62
50684;BME280;36654;45.042;38.994;2023-03-14T00:43:50;101814.72;;;3.42;74.50
50684;BME280;36654;45.042;38.994;2023-03-14T00:46:18;101825.41;;;3.45;74.37
50684;BME280;36654;45.042;38.994;2023-03-14T00:48:45;101830.72;;;3.46;74.30
50684;BME280;36654;45.042;38.994;2023-03-14T00:51:11;101836.06;;;3.48;74.27
50684;BME280;36654;45.042;38.994;2023-03-14T00:53:39;101824.84;;;3.51;74.35
50684;BME280;36654;45.042;38.994;2023-03-14T00:56:07;101825.00;;;3.54;74.32
50684;BME280;36654;45.042;38.994;2023-03-14T00:58:33;101816.25;;;3.53;74.19
50684;BME280;36654;45.042;38.994;2023-03-14T01:00:59;101805.66;;;3.52;74.19
50684;BME280;36654;45.042;38.994;2023-03-14T01:03:24;101806.47;;;3.51;74.27
50684;BME280;36654;45.042;38.994;2023-03-14T01:05:50;101832.81;;;3.52;74.05
50684;BME280;36654;45.042;38.994;2023-03-14T01:08:17;101824.28;;;3.56;73.99
50684;BME280;36654;45.042;38.994;2023-03-14T01:10:42;101819.13;;;3.58;73.91
50684;BME280;36654;45.042;38.994;2023-03-14T01:13:09;101805.13;;;3.57;73.80
50684;BME280;36654;45.042;38.994;2023-03-14T01:15:35;101801.34;;;3.52;73.92
50684;BME280;36654;45.042;38.994;2023-03-14T01:18:02;101809.53;;;3.58;73.63
50684;BME280;36654;45.042;38.994;2023-03-14T01:20:28;101815.94;;;3.63;73.50
50684;BME280;36654;45.042;38.994;2023-03-14T01:22:54;101837.81;;;3.64;73.68
50684;BME280;36654;45.042;38.994;2023-03-14T01:25:19;101820.44;;;3.66;73.47
50684;BME280;36654;45.042;38.994;2023-03-14T01:27:45;101816.31;;;3.70;73.16
50684;BME280;36654;45.042;38.994;2023-03-14T01:30:11;101808.44;;;3.70;72.98
50684;BME280;36654;45.042;38.994;2023-03-14T01:32:38;101804.72;;;3.66;72.92
50684;BME280;36654;45.042;38.994;2023-03-14T01:35:04;101804.88;;;3.69;73.04
50684;BME280;36654;45.042;38.994;2023-03-14T01:37:30;101814.00;;;3.76;72.94
50684;BME280;36654;45.042;38.994;2023-03-14T01:39:55;101787.53;;;3.71;72.55
50684;BME280;36654;45.042;38.994;2023-03-14T01:42:21;101816.78;;;3.79;72.60
50684;BME280;36654;45.042;38.994;2023-03-14T01:44:57;101799.44;;;3.81;72.68
50684;BME280;36654;45.042;38.994;2023-03-14T01:47:23;101829.19;;;3.81;72.53
50684;BME280;36654;45.042;38.994;2023-03-14T01:50:04;101819.41;;;3.79;72.55
50684;BME280;36654;45.042;38.994;2023-03-14T01:52:36;101804.50;;;3.78;72.33
50684;BME280;36654;45.042;38.994;2023-03-14T01:55:07;101798.28;;;3.76;72.49
50684;BME280;36654;45.042;38.994;2023-03-14T01:57:38;101801.63;;;3.73;72.78
50684;BME280;36654;45.042;38.994;2023-03-14T02:00:08;101823.66;;;3.77;72.73
50684;BME280;36654;45.042;38.994;2023-03-14T02:02:44;101815.56;;;3.72;72.88
50684;BME280;36654;45.042;38.994;2023-03-14T02:05:13;101799.09;;;3.75;72.88
50684;BME280;36654;45.042;38.994;2023-03-14T02:07:51;101804.34;;;3.75;72.96
50684;BME280;36654;45.042;38.994;2023-03-14T02:10:21;101788.25;;;3.68;73.16
50684;BME280;36654;45.042;38.994;2023-03-14T02:12:49;101824.34;;;3.73;73.11
50684;BME280;36654;45.042;38.994;2023-03-14T02:15:16;101809.41;;;3.72;73.33
50684;BME280;36654;45.042;38.994;2023-03-14T02:17:43;101809.59;;;3.75;73.35
50684;BME280;36654;45.042;38.994;2023-03-14T02:22:46;101813.75;;;3.71;73.44
50684;BME280;36654;45.042;38.994;2023-03-14T02:27:49;101800.38;;;3.66;73.38
50684;BME280;36654;45.042;38.994;2023-03-14T02:30:18;101812.75;;;3.69;73.20
50684;BME280;36654;45.042;38.994;2023-03-14T02:32:47;101823.34;;;3.71;73.32
50684;BME280;36654;45.042;38.994;2023-03-14T02:35:21;101792.34;;;3.63;73.36
50684;BME280;36654;45.042;38.994;2023-03-14T02:40:13;101797.59;;;3.63;72.84
50684;BME280;36654;45.042;38.994;2023-03-14T02:42:38;101771.97;;;3.43;72.75
50684;BME280;36654;45.042;38.994;2023-03-14T02:47:54;101811.84;;;3.68;72.50
50684;BME280;36654;45.042;38.994;2023-03-14T02:50:26;101756.88;;;3.39;72.25
50684;BME280;36654;45.042;38.994;2023-03-14T02:52:53;101799.56;;;3.67;72.22
50684;BME280;36654;45.042;38.994;2023-03-14T02:55:23;101802.03;;;3.64;72.10
50684;BME280;36654;45.042;38.994;2023-03-14T02:57:48;101789.38;;;3.57;72.02
50684;BME280;36654;45.042;38.994;2023-03-14T03:00:15;101774.44;;;3.56;71.96
50684;BME280;36654;45.042;38.994;2023-03-14T03:02:41;101790.53;;;3.62;71.79
50684;BME280;36654;45.042;38.994;2023-03-14T03:05:06;101724.94;;;3.30;71.74
50684;BME280;36654;45.042;38.994;2023-03-14T03:07:32;101791.34;;;3.61;71.61
50684;BME280;36654;45.042;38.994;2023-03-14T03:09:58;101761.00;;;3.50;71.42
50684;BME280;36654;45.042;38.994;2023-03-14T03:12:23;101792.97;;;3.59;71.31
50684;BME280;36654;45.042;38.994;2023-03-14T03:14:49;101784.47;;;3.63;71.29
50684;BME280;36654;45.042;38.994;2023-03-14T03:17:15;101734.28;;;3.41;71.10
50684;BME280;36654;45.042;38.994;2023-03-14T03:19:40;101767.31;;;3.54;71.04
50684;BME280;36654;45.042;38.994;2023-03-14T03:22:06;101789.88;;;3.66;70.82
50684;BME280;36654;45.042;38.994;2023-03-14T03:24:32;101794.22;;;3.66;70.59
50684;BME280;36654;45.042;38.994;2023-03-14T03:26:58;101783.47;;;3.61;70.57
50684;BME280;36654;45.042;38.994;2023-03-14T03:29:23;101818.09;;;3.71;70.42
50684;BME280;36654;45.042;38.994;2023-03-14T03:31:49;101797.84;;;3.68;70.40
50684;BME280;36654;45.042;38.994;2023-03-14T03:34:14;101794.97;;;3.63;70.28
50684;BME280;36654;45.042;38.994;2023-03-14T03:36:40;101783.00;;;3.68;70.18
50684;BME280;36654;45.042;38.994;2023-03-14T03:39:06;101761.75;;;3.48;70.29
50684;BME280;36654;45.042;38.994;2023-03-14T03:41:32;101801.47;;;3.70;69.87
50684;BME280;36654;45.042;38.994;2023-03-14T03:43:58;101798.09;;;3.73;69.82
50684;BME280;36654;45.042;38.994;2023-03-14T03:46:24;101792.19;;;3.77;69.71
50684;BME280;36654;45.042;38.994;2023-03-14T03:48:59;101804.50;;;3.78;69.48
50684;BME280;36654;45.042;38.994;2023-03-14T03:51:25;101748.69;;;3.49;69.37
50684;BME280;36654;45.042;38.994;2023-03-14T03:53:51;101791.41;;;3.78;69.25
50684;BME280;36654;45.042;38.994;2023-03-14T03:56:17;101779.59;;;3.70;69.23
50684;BME280;36654;45.042;38.994;2023-03-14T03:58:43;101808.13;;;3.80;68.94
50684;BME280;36654;45.042;38.994;2023-03-14T04:01:09;101790.56;;;3.79;69.02
50684;BME280;36654;45.042;38.994;2023-03-14T04:03:35;101800.41;;;3.83;69.26
50684;BME280;36654;45.042;38.994;2023-03-14T04:06:03;101804.84;;;3.84;69.02
50684;BME280;36654;45.042;38.994;2023-03-14T04:08:29;101797.97;;;3.86;68.77
50684;BME280;36654;45.042;38.994;2023-03-14T04:10:56;101794.53;;;3.87;68.60
50684;BME280;36654;45.042;38.994;2023-03-14T04:13:23;101806.00;;;3.89;68.62
50684;BME280;36654;45.042;38.994;2023-03-14T04:15:49;101785.47;;;3.82;68.56
50684;BME280;36654;45.042;38.994;2023-03-14T04:18:14;101806.97;;;3.91;68.69
50684;BME280;36654;45.042;38.994;2023-03-14T04:20:40;101796.16;;;3.85;68.40
50684;BME280;36654;45.042;38.994;2023-03-14T04:23:06;101646.91;;;2.94;68.54
50684;BME280;36654;45.042;38.994;2023-03-14T04:25:31;101786.81;;;3.90;68.43
50684;BME280;36654;45.042;38.994;2023-03-14T04:27:57;101789.63;;;3.93;68.57
50684;BME280;36654;45.042;38.994;2023-03-14T04:30:22;101754.72;;;3.63;68.18
50684;BME280;36654;45.042;38.994;2023-03-14T04:32:48;101812.38;;;3.94;68.34
50684;BME280;36654;45.042;38.994;2023-03-14T04:35:13;101803.56;;;3.92;68.49
50684;BME280;36654;45.042;38.994;2023-03-14T04:37:39;101783.63;;;3.96;68.30
50684;BME280;36654;45.042;38.994;2023-03-14T04:40:07;101806.19;;;3.92;68.46
50684;BME280;36654;45.042;38.994;2023-03-14T04:42:33;101800.28;;;3.96;68.34
50684;BME280;36654;45.042;38.994;2023-03-14T04:44:59;101771.03;;;3.74;68.50
50684;BME280;36654;45.042;38.994;2023-03-14T04:47:25;101783.72;;;3.97;68.36
50684;BME280;36654;45.042;38.994;2023-03-14T04:49:51;101796.50;;;3.91;68.19
50684;BME280;36654;45.042;38.994;2023-03-14T04:52:17;101800.09;;;3.93;68.20
50684;BME280;36654;45.042;38.994;2023-03-14T04:54:43;101785.00;;;3.89;68.34
50684;BME280;36654;45.042;38.994;2023-03-14T04:57:08;101777.38;;;3.77;68.45
50684;BME280;36654;45.042;38.994;2023-03-14T04:59:34;101808.88;;;3.94;68.31
50684;BME280;36654;45.042;38.994;2023-03-14T05:01:59;101800.09;;;3.93;68.66
50684;BME280;36654;45.042;38.994;2023-03-14T05:04:25;101790.50;;;3.94;68.50
50684;BME280;36654;45.042;38.994;2023-03-14T05:06:50;101784.22;;;3.90;68.59
50684;BME280;36654;45.042;38.994;2023-03-14T05:09:16;101749.75;;;3.67;68.73
50684;BME280;36654;45.042;38.994;2023-03-14T05:11:41;101778.13;;;3.91;68.91
50684;BME280;36654;45.042;38.994;2023-03-14T05:14:07;101719.38;;;3.56;68.88
50684;BME280;36654;45.042;38.994;2023-03-14T05:16:33;101783.94;;;3.85;69.01
50684;BME280;36654;45.042;38.994;2023-03-14T05:18:58;101770.09;;;3.88;68.96
50684;BME280;36654;45.042;38.994;2023-03-14T05:21:24;101782.72;;;3.95;68.74
50684;BME280;36654;45.042;38.994;2023-03-14T05:23:50;101779.44;;;3.99;68.85
50684;BME280;36654;45.042;38.994;2023-03-14T05:26:16;101728.75;;;3.67;68.70
50684;BME280;36654;45.042;38.994;2023-03-14T05:28:42;101788.31;;;4.01;68.61
50684;BME280;36654;45.042;38.994;2023-03-14T05:31:08;101784.69;;;3.99;68.69
50684;BME280;36654;45.042;38.994;2023-03-14T05:33:34;101769.28;;;4.05;68.65
50684;BME280;36654;45.042;38.994;2023-03-14T05:35:59;101790.59;;;4.11;68.64
50684;BME280;36654;45.042;38.994;2023-03-14T05:38:25;101716.38;;;3.81;68.26
50684;BME280;36654;45.042;38.994;2023-03-14T05:40:50;101764.53;;;4.15;68.18
50684;BME280;36654;45.042;38.994;2023-03-14T05:43:16;101786.50;;;4.17;68.25
50684;BME280;36654;45.042;38.994;2023-03-14T05:45:42;101760.25;;;4.17;68.17
50684;BME280;36654;45.042;38.994;2023-03-14T05:48:08;101757.81;;;4.20;67.77
50684;BME280;36654;45.042;38.994;2023-03-14T05:50:34;101772.88;;;4.24;67.83
50684;BME280;36654;45.042;38.994;2023-03-14T05:53:00;101780.13;;;4.28;67.72
50684;BME280;36654;45.042;38.994;2023-03-14T05:55:25;101769.53;;;4.26;67.61
50684;BME280;36654;45.042;38.994;2023-03-14T05:57:53;101766.16;;;4.29;67.54
50684;BME280;36654;45.042;38.994;2023-03-14T06:00:19;101790.94;;;4.34;67.66
50684;BME280;36654;45.042;38.994;2023-03-14T06:02:44;101797.50;;;4.42;67.63
50684;BME280;36654;45.042;38.994;2023-03-14T06:05:10;101794.41;;;4.49;67.07
50684;BME280;36654;45.042;38.994;2023-03-14T06:07:36;101791.91;;;4.52;67.10
50684;BME280;36654;45.042;38.994;2023-03-14T06:10:01;101772.66;;;4.52;66.98
50684;BME280;36654;45.042;38.994;2023-03-14T06:12:27;101777.84;;;4.68;66.79
50684;BME280;36654;45.042;38.994;2023-03-14T06:14:53;101783.03;;;4.67;66.62
50684;BME280;36654;45.042;38.994;2023-03-14T06:17:19;101774.41;;;4.69;66.50
50684;BME280;36654;45.042;38.994;2023-03-14T06:19:44;101761.28;;;4.69;66.35
50684;BME280;36654;45.042;38.994;2023-03-14T06:22:10;101769.38;;;4.74;66.26
50684;BME280;36654;45.042;38.994;2023-03-14T06:24:35;101788.44;;;4.70;66.32
50684;BME280;36654;45.042;38.994;2023-03-14T06:27:01;101777.78;;;4.67;66.35
50684;BME280;36654;45.042;38.994;2023-03-14T06:29:29;101768.34;;;4.70;66.46
50684;BME280;36654;45.042;38.994;2023-03-14T06:31:54;101738.69;;;4.73;66.57
50684;BME280;36654;45.042;38.994;2023-03-14T06:34:20;101763.47;;;4.78;66.63
50684;BME280;36654;45.042;38.994;2023-03-14T06:36:46;101761.72;;;4.79;66.51
50684;BME280;36654;45.042;38.994;2023-03-14T06:39:11;101707.19;;;4.57;66.41
50684;BME280;36654;45.042;38.994;2023-03-14T06:41:37;101762.97;;;4.85;66.64
50684;BME280;36654;45.042;38.994;2023-03-14T06:44:03;101743.50;;;4.82;66.43
50684;BME280;36654;45.042;38.994;2023-03-14T06:46:29;101722.25;;;4.77;66.43
50684;BME280;36654;45.042;38.994;2023-03-14T06:48:54;101746.34;;;4.86;66.40
50684;BME280;36654;45.042;38.994;2023-03-14T06:51:20;101684.69;;;4.62;66.40
50684;BME280;36654;45.042;38.994;2023-03-14T06:53:46;101735.59;;;4.82;66.58
50684;BME280;36654;45.042;38.994;2023-03-14T06:56:11;101736.22;;;4.94;66.65
50684;BME280;36654;45.042;38.994;2023-03-14T06:58:37;101706.94;;;4.86;66.54
50684;BME280;36654;45.042;38.994;2023-03-14T07:01:03;101737.44;;;5.01;66.68
50684;BME280;36654;45.042;38.994;2023-03-14T07:03:28;101699.75;;;4.82;66.60
50684;BME280;36654;45.042;38.994;2023-03-14T07:05:54;101709.88;;;4.92;66.18
50684;BME280;36654;45.042;38.994;2023-03-14T07:08:20;101676.09;;;4.82;66.38
50684;BME280;36654;45.042;38.994;2023-03-14T07:10:45;101728.38;;;5.12;66.51
50684;BME280;36654;45.042;38.994;2023-03-14T07:13:11;101724.25;;;5.17;66.50
50684;BME280;36654;45.042;38.994;2023-03-14T07:15:37;101722.75;;;5.22;66.52
50684;BME280;36654;45.042;38.994;2023-03-14T07:18:02;101737.06;;;5.29;66.39
50684;BME280;36654;45.042;38.994;2023-03-14T07:20:28;101712.63;;;5.31;66.21
50684;BME280;36654;45.042;38.994;2023-03-14T07:22:54;101705.59;;;5.30;66.11
50684;BME280;36654;45.042;38.994;2023-03-14T07:25:20;101703.69;;;5.46;65.93
50684;BME280;36654;45.042;38.994;2023-03-14T07:27:46;101704.81;;;5.51;65.98
50684;BME280;36654;45.042;38.994;2023-03-14T07:30:14;101703.44;;;5.59;65.81
50684;BME280;36654;45.042;38.994;2023-03-14T07:32:40;101707.34;;;5.67;65.78
50684;BME280;36654;45.042;38.994;2023-03-14T07:35:06;101713.72;;;5.72;65.58
50684;BME280;36654;45.042;38.994;2023-03-14T07:37:32;101718.13;;;5.73;64.94
50684;BME280;36654;45.042;38.994;2023-03-14T07:39:57;101696.31;;;5.76;65.00
50684;BME280;36654;45.042;38.994;2023-03-14T07:42:23;101691.81;;;5.73;64.46
50684;BME280;36654;45.042;38.994;2023-03-14T07:44:48;101705.41;;;5.82;64.26
50684;BME280;36654;45.042;38.994;2023-03-14T07:47:14;101687.41;;;5.92;64.44
50684;BME280;36654;45.042;38.994;2023-03-14T07:49:40;101662.47;;;5.83;64.37
50684;BME280;36654;45.042;38.994;2023-03-14T07:52:05;101688.13;;;6.07;64.15
50684;BME280;36654;45.042;38.994;2023-03-14T07:54:31;101691.56;;;6.06;63.82
50684;BME280;36654;45.042;38.994;2023-03-14T07:56:56;101689.38;;;5.96;63.64
50684;BME280;36654;45.042;38.994;2023-03-14T07:59:25;101693.81;;;5.97;63.82
50684;BME280;36654;45.042;38.994;2023-03-14T08:01:51;101644.47;;;5.73;63.98
50684;BME280;36654;45.042;38.994;2023-03-14T08:04:16;101659.44;;;5.94;63.92
50684;BME280;36654;45.042;38.994;2023-03-14T08:06:42;101685.28;;;6.02;63.88
50684;BME280;36654;45.042;38.994;2023-03-14T08:09:07;101688.13;;;6.07;63.88
50684;BME280;36654;45.042;38.994;2023-03-14T08:11:33;101700.31;;;6.05;64.02
50684;BME280;36654;45.042;38.994;2023-03-14T08:13:59;101689.78;;;6.05;63.94
50684;BME280;36654;45.042;38.994;2023-03-14T08:16:24;101688.25;;;6.10;63.71
50684;BME280;36654;45.042;38.994;2023-03-14T08:18:50;101689.09;;;6.09;63.76
50684;BME280;36654;45.042;38.994;2023-03-14T08:21:15;101711.28;;;6.14;63.87
50684;BME280;36654;45.042;38.994;2023-03-14T08:23:41;101708.78;;;6.17;63.67
50684;BME280;36654;45.042;38.994;2023-03-14T08:26:07;101671.06;;;6.18;63.67
50684;BME280;36654;45.042;38.994;2023-03-14T08:28:33;101685.31;;;6.23;63.79
50684;BME280;36654;45.042;38.994;2023-03-14T08:30:59;101698.66;;;6.26;63.51
50684;BME280;36654;45.042;38.994;2023-03-14T08:33:27;101691.69;;;6.29;63.33
50684;BME280;36654;45.042;38.994;2023-03-14T08:35:54;101678.53;;;6.29;63.56
50684;BME280;36654;45.042;38.994;2023-03-14T08:38:20;101675.84;;;6.27;63.49
50684;BME280;36654;45.042;38.994;2023-03-14T08:40:45;101687.16;;;6.24;63.89
50684;BME280;36654;45.042;38.994;2023-03-14T08:43:11;101704.09;;;6.31;63.57
50684;BME280;36654;45.042;38.994;2023-03-14T08:45:36;101688.13;;;6.26;63.77
50684;BME280;36654;45.042;38.994;2023-03-14T08:48:02;101689.06;;;6.29;63.89
50684;BME280;36654;45.042;38.994;2023-03-14T08:50:28;101680.56;;;6.34;63.91
50684;BME280;36654;45.042;38.994;2023-03-14T08:52:54;101659.00;;;6.23;63.89
50684;BME280;36654;45.042;38.994;2023-03-14T08:55:19;101697.25;;;6.35;64.15
50684;BME280;36654;45.042;38.994;2023-03-14T08:57:45;101687.69;;;6.37;64.08
50684;BME280;36654;45.042;38.994;2023-03-14T09:00:11;101690.16;;;6.34;64.94
50684;BME280;36654;45.042;38.994;2023-03-14T09:02:41;101692.25;;;6.21;65.91
50684;BME280;36654;45.042;38.994;2023-03-14T09:05:08;101697.53;;;6.21;66.44
50684;BME280;36654;45.042;38.994;2023-03-14T09:07:34;101694.84;;;6.20;66.99
50684;BME280;36654;45.042;38.994;2023-03-14T09:09:59;101638.38;;;5.94;67.42
50684;BME280;36654;45.042;38.994;2023-03-14T09:12:25;101672.19;;;6.04;68.13
50684;BME280;36654;45.042;38.994;2023-03-14T09:14:50;101671.38;;;6.05;68.78
50684;BME280;36654;45.042;38.994;2023-03-14T09:17:16;101682.72;;;6.04;69.05
50684;BME280;36654;45.042;38.994;2023-03-14T09:19:41;101680.91;;;6.03;69.81
50684;BME280;36654;45.042;38.994;2023-03-14T09:22:07;101679.94;;;6.01;70.09
50684;BME280;36654;45.042;38.994;2023-03-14T09:24:32;101700.09;;;6.00;70.17
50684;BME280;36654;45.042;38.994;2023-03-14T09:26:58;101660.53;;;5.79;70.00
50684;BME280;36654;45.042;38.994;2023-03-14T09:29:23;101699.22;;;6.00;69.67
50684;BME280;36654;45.042;38.994;2023-03-14T09:31:49;101679.13;;;6.02;69.63
50684;BME280;36654;45.042;38.994;2023-03-14T09:34:15;101650.84;;;5.98;69.83
50684;BME280;36654;45.042;38.994;2023-03-14T09:36:41;101656.53;;;6.07;69.75
50684;BME280;36654;45.042;38.994;2023-03-14T09:39:09;101662.81;;;6.11;69.42
50684;BME280;36654;45.042;38.994;2023-03-14T09:41:39;101655.66;;;6.07;69.41
50684;BME280;36654;45.042;38.994;2023-03-14T09:44:14;101646.50;;;5.98;69.25
50684;BME280;36654;45.042;38.994;2023-03-14T09:46:43;101649.88;;;6.15;68.44
50684;BME280;36654;45.042;38.994;2023-03-14T09:49:27;101647.78;;;6.28;67.91
50684;BME280;36654;45.042;38.994;2023-03-14T09:51:55;101639.31;;;6.35;67.47
50684;BME280;36654;45.042;38.994;2023-03-14T09:54:43;101644.63;;;6.36;66.44
50684;BME280;36654;45.042;38.994;2023-03-14T09:57:15;101661.59;;;6.43;66.01
50684;BME280;36654;45.042;38.994;2023-03-14T09:59:44;101615.72;;;6.38;65.51
50684;BME280;36654;45.042;38.994;2023-03-14T10:02:20;101634.91;;;6.56;65.08
50684;BME280;36654;45.042;38.994;2023-03-14T10:04:48;101639.63;;;6.63;64.84
50684;BME280;36654;45.042;38.994;2023-03-14T10:07:28;101621.63;;;6.53;63.80
50684;BME280;36654;45.042;38.994;2023-03-14T10:09:54;101632.69;;;6.65;63.39
50684;BME280;36654;45.042;38.994;2023-03-14T10:12:30;101592.91;;;6.59;62.93
50684;BME280;36654;45.042;38.994;2023-03-14T10:14:56;101624.44;;;6.79;62.56
50684;BME280;36654;45.042;38.994;2023-03-14T10:17:22;101637.75;;;6.82;61.87
50684;BME280;36654;45.042;38.994;2023-03-14T10:20:00;101630.09;;;6.88;61.42
50684;BME280;36654;45.042;38.994;2023-03-14T10:22:30;101614.38;;;6.91;61.18
50684;BME280;36654;45.042;38.994;2023-03-14T10:25:06;101614.56;;;6.96;61.34
50684;BME280;36654;45.042;38.994;2023-03-14T10:27:43;101607.44;;;6.93;61.33
50684;BME280;36654;45.042;38.994;2023-03-14T10:30:30;101622.75;;;7.02;61.46
50684;BME280;36654;45.042;38.994;2023-03-14T10:33:08;101588.59;;;6.84;61.69
50684;BME280;36654;45.042;38.994;2023-03-14T10:35:34;101634.22;;;7.04;61.31
50684;BME280;36654;45.042;38.994;2023-03-14T10:38:02;101637.63;;;7.01;61.31
50684;BME280;36654;45.042;38.994;2023-03-14T10:40:32;101643.75;;;7.00;61.31
50684;BME280;36654;45.042;38.994;2023-03-14T10:42:59;101632.34;;;7.01;61.29
50684;BME280;36654;45.042;38.994;2023-03-14T10:45:40;101632.50;;;7.04;61.49
50684;BME280;36654;45.042;38.994;2023-03-14T10:53:39;101628.25;;;7.08;61.11
50684;BME280;36654;45.042;38.994;2023-03-14T10:56:05;101645.09;;;7.11;61.01
50684;BME280;36654;45.042;38.994;2023-03-14T10:58:35;101614.16;;;7.07;60.97
50684;BME280;36654;45.042;38.994;2023-03-14T11:03:47;101613.50;;;7.13;60.99
50684;BME280;36654;45.042;38.994;2023-03-14T11:06:31;101610.19;;;7.19;60.88
50684;BME280;36654;45.042;38.994;2023-03-14T11:09:10;101608.53;;;7.21;61.15
50684;BME280;36654;45.042;38.994;2023-03-14T11:11:39;101597.09;;;7.20;61.04
50684;BME280;36654;45.042;38.994;2023-03-14T11:19:47;101609.66;;;7.27;61.13
50684;BME280;36654;45.042;38.994;2023-03-14T11:22:37;101610.66;;;7.31;61.18
50684;BME280;36654;45.042;38.994;2023-03-14T11:28:01;101591.84;;;7.44;61.31
50684;BME280;36654;45.042;38.994;2023-03-14T11:30:53;101585.13;;;7.52;60.94
50684;BME280;36654;45.042;38.994;2023-03-14T11:33:30;101541.31;;;7.33;61.11
50684;BME280;36654;45.042;38.994;2023-03-14T11:41:01;101560.44;;;7.76;60.65
50684;BME280;36654;45.042;38.994;2023-03-14T11:43:33;101520.78;;;7.49;60.76
50684;BME280;36654;45.042;38.994;2023-03-14T11:46:23;101574.69;;;7.81;60.71
50684;BME280;36654;45.042;38.994;2023-03-14T11:51:36;101568.94;;;7.91;60.63
50684;BME280;36654;45.042;38.994;2023-03-14T11:56:59;101558.72;;;8.02;60.57
50684;BME280;36654;45.042;38.994;2023-03-14T11:59:38;101553.34;;;7.99;60.25
50684;BME280;36654;45.042;38.994;2023-03-14T12:10:21;101532.88;;;7.93;60.28
50684;BME280;36654;45.042;38.994;2023-03-14T12:12:47;101527.69;;;7.95;60.24
50684;BME280;36654;45.042;38.994;2023-03-14T12:15:23;101540.25;;;8.02;60.46
50684;BME280;36654;45.042;38.994;2023-03-14T12:17:54;101497.94;;;8.00;60.68
50684;BME280;36654;45.042;38.994;2023-03-14T12:20:24;101509.56;;;8.06;60.66
50684;BME280;36654;45.042;38.994;2023-03-14T12:22:52;101490.41;;;8.13;60.68
50684;BME280;36654;45.042;38.994;2023-03-14T12:25:21;101483.47;;;8.15;60.72
50684;BME280;36654;45.042;38.994;2023-03-14T12:30:29;101508.28;;;8.20;61.03
50684;BME280;36654;45.042;38.994;2023-03-14T12:35:46;101498.66;;;8.22;61.17
50684;BME280;36654;45.042;38.994;2023-03-14T12:43:33;101490.03;;;8.28;61.28
50684;BME280;36654;45.042;38.994;2023-03-14T12:46:41;101490.19;;;8.32;61.48
50684;BME280;36654;45.042;38.994;2023-03-14T12:51:34;101491.13;;;8.34;61.36
50684;BME280;36654;45.042;38.994;2023-03-14T12:54:32;101486.06;;;8.40;61.47
50684;BME280;36654;45.042;38.994;2023-03-14T12:59:45;101472.22;;;8.48;61.46
50684;BME280;36654;45.042;38.994;2023-03-14T13:02:21;101466.09;;;8.49;61.56
50684;BME280;36654;45.042;38.994;2023-03-14T13:04:52;101474.28;;;8.58;61.32
50684;BME280;36654;45.042;38.994;2023-03-14T13:17:59;101466.66;;;8.97;60.45
50684;BME280;36654;45.042;38.994;2023-03-14T13:20:28;101468.56;;;9.01;60.71
50684;BME280;36654;45.042;38.994;2023-03-14T13:22:54;101470.41;;;9.04;60.55
50684;BME280;36654;45.042;38.994;2023-03-14T13:25:20;101453.44;;;8.97;60.56
50684;BME280;36654;45.042;38.994;2023-03-14T13:27:48;101471.22;;;9.01;60.57
50684;BME280;36654;45.042;38.994;2023-03-14T13:30:26;101458.00;;;9.03;61.08
50684;BME280;36654;45.042;38.994;2023-03-14T13:32:54;101456.31;;;9.05;61.21
50684;BME280;36654;45.042;38.994;2023-03-14T13:35:26;101449.31;;;9.07;61.28
50684;BME280;36654;45.042;38.994;2023-03-14T13:37:55;101458.28;;;9.12;61.24
50684;BME280;36654;45.042;38.994;2023-03-14T13:40:29;101450.41;;;9.14;61.43
50684;BME280;36654;45.042;38.994;2023-03-14T13:43:10;101430.94;;;9.12;61.46
50684;BME280;36654;45.042;38.994;2023-03-14T13:48:28;101417.72;;;9.13;62.07
50684;BME280;36654;45.042;38.994;2023-03-14T13:51:03;101421.41;;;9.18;62.23
50684;BME280;36654;45.042;38.994;2023-03-14T13:53:30;101409.03;;;9.17;62.26
50684;BME280;36654;45.042;38.994;2023-03-14T13:55:56;101412.72;;;9.22;62.34
50684;BME280;36654;45.042;38.994;2023-03-14T13:58:28;101417.94;;;9.19;62.35
50684;BME280;36654;45.042;38.994;2023-03-14T14:03:39;101395.81;;;9.17;62.66
50684;BME280;36654;45.042;38.994;2023-03-14T14:06:30;101401.97;;;9.16;62.59
50684;BME280;36654;45.042;38.994;2023-03-14T14:08:59;101353.69;;;8.92;62.58
50684;BME280;36654;45.042;38.994;2023-03-14T14:14:21;101400.97;;;9.13;62.47
50684;BME280;36654;45.042;38.994;2023-03-14T14:16:49;101401.78;;;9.10;62.49